sensor_id;sensor_type;location;lat;lon;timestamp;temperature;humidity
19680;DHT22;9989;48.962;9.182;2023-02-10T00:01:06;0.50;99.90
19680;DHT22;9989;48.962;9.182;2023-02-10T00:03:32;0.50;99.90
19680;DHT22;9989;48.962;9.182;2023-02-10T00:05:58;0.40;99.90
19680;DHT22;9989;48.962;9.182;2023-02-10T00:08:23;0.40;99.90
19680;DHT22;9989;48.962;9.182;2023-02-10T00:10:49;0.40;99.90
19680;DHT22;9989;48.962;9.182;2023-02-10T00:13:15;0.40;99.90
19680;DHT22;9989;48.962;9.182;2023-02-10T00:15:40;0.30;99.90
19680;DHT22;9989;48.962;9.182;2023-02-10T00:18:06;0.30;99.90
19680;DHT22;9989;48.962;9.182;2023-02-10T00:20:31;0.20;99.90
19680;DHT22;9989;48.962;9.182;2023-02-10T00:22:57;0.10;99.90
19680;DHT22;9989;48.962;9.182;2023-02-10T00:25:23;0.10;99.90
19680;DHT22;9989;48.962;9.182;2023-02-10T00:27:48;0.10;99.90
19680;DHT22;9989;48.962;9.182;2023-02-10T00:30:14;0.20;99.90
19680;DHT22;9989;48.962;9.182;2023-02-10T00:32:39;0.10;99.90
19680;DHT22;9989;48.962;9.182;2023-02-10T00:35:07;0.10;99.90
19680;DHT22;9989;48.962;9.182;2023-02-10T00:37:33;0.10;99.90
19680;DHT22;9989;48.962;9.182;2023-02-10T00:39:58;0.10;99.90
19680;DHT22;9989;48.962;9.182;2023-02-10T00:42:24;0.00;99.90
19680;DHT22;9989;48.962;9.182;2023-02-10T00:44:49;0.00;99.90
19680;DHT22;9989;48.962;9.182;2023-02-10T00:47:15;0.00;99.90
19680;DHT22;9989;48.962;9.182;2023-02-10T00:49:41;0.10;99.90
19680;DHT22;9989;48.962;9.182;2023-02-10T00:52:07;0.10;99.90
19680;DHT22;9989;48.962;9.182;2023-02-10T00:54:32;0.10;99.90
19680;DHT22;9989;48.962;9.182;2023-02-10T00:56:58;0.10;99.90
19680;DHT22;9989;48.962;9.182;2023-02-10T00:59:24;0.10;99.90
19680;DHT22;9989;48.962;9.182;2023-02-10T01:01:49;0.10;99.90
19680;DHT22;9989;48.962;9.182;2023-02-10T01:04:15;0.00;99.90
19680;DHT22;9989;48.962;9.182;2023-02-10T01:06:41;0.00;99.90
19680;DHT22;9989;48.962;9.182;2023-02-10T01:09:06;0.00;99.90
19680;DHT22;9989;48.962;9.182;2023-02-10T01:11:32;0.00;99.90
19680;DHT22;9989;48.962;9.182;2023-02-10T01:13:58;0.00;99.90
19680;DHT22;9989;48.962;9.182;2023-02-10T01:16:23;0.00;99.90
19680;DHT22;9989;48.962;9.182;2023-02-10T01:18:49;0.00;99.90
19680;DHT22;9989;48.962;9.182;2023-02-10T01:21:17;0.00;99.90
19680;DHT22;9989;48.962;9.182;2023-02-10T01:23:44;0.00;99.90
19680;DHT22;9989;48.962;9.182;2023-02-10T01:26:10;0.00;99.90
19680;DHT22;9989;48.962;9.182;2023-02-10T01:28:38;0.00;99.90
19680;DHT22;9989;48.962;9.182;2023-02-10T01:31:12;0.00;99.90
19680;DHT22;9989;48.962;9.182;2023-02-10T01:33:39;0.00;99.90
19680;DHT22;9989;48.962;9.182;2023-02-10T01:36:06;0.00;99.90
19680;DHT22;9989;48.962;9.182;2023-02-10T01:38:33;0.00;99.90
19680;DHT22;9989;48.962;9.182;2023-02-10T01:40:59;0.00;99.90
19680;DHT22;9989;48.962;9.182;2023-02-10T01:43:24;0.00;99.90
19680;DHT22;9989;48.962;9.182;2023-02-10T01:45:50;0.00;99.90
19680;DHT22;9989;48.962;9.182;2023-02-10T01:48:16;-0.10;99.90
19680;DHT22;9989;48.962;9.182;2023-02-10T01:50:52;0.00;99.90
19680;DHT22;9989;48.962;9.182;2023-02-10T01:53:19;0.00;99.90
19680;DHT22;9989;48.962;9.182;2023-02-10T01:55:48;0.00;99.90
19680;DHT22;9989;48.962;9.182;2023-02-10T01:58:18;0.00;99.90
19680;DHT22;9989;48.962;9.182;2023-02-10T02:00:45;0.00;99.90
19680;DHT22;9989;48.962;9.182;2023-02-10T02:03:11;0.00;99.90
19680;DHT22;9989;48.962;9.182;2023-02-10T02:05:39;-0.10;99.90
19680;DHT22;9989;48.962;9.182;2023-02-10T02:08:20;-0.20;99.90
19680;DHT22;9989;48.962;9.182;2023-02-10T02:13:30;-0.40;99.90
19680;DHT22;9989;48.962;9.182;2023-02-10T02:18:41;-0.40;99.90
19680;DHT22;9989;48.962;9.182;2023-02-10T02:27:11;-0.40;99.90
19680;DHT22;9989;48.962;9.182;2023-02-10T02:30:04;-0.50;99.90
19680;DHT22;9989;48.962;9.182;2023-02-10T02:32:42;-0.50;99.90
19680;DHT22;9989;48.962;9.182;2023-02-10T02:35:13;-0.50;99.90
19680;DHT22;9989;48.962;9.182;2023-02-10T02:37:44;-0.50;99.90
19680;DHT22;9989;48.962;9.182;2023-02-10T02:40:13;-0.50;99.90
19680;DHT22;9989;48.962;9.182;2023-02-10T02:42:39;-0.50;99.90
19680;DHT22;9989;48.962;9.182;2023-02-10T02:45:15;-0.50;99.90
19680;DHT22;9989;48.962;9.182;2023-02-10T02:50:55;-0.60;99.90
19680;DHT22;9989;48.962;9.182;2023-02-10T03:01:52;-0.60;99.90
19680;DHT22;9989;48.962;9.182;2023-02-10T03:04:20;-0.60;99.90
19680;DHT22;9989;48.962;9.182;2023-02-10T03:06:46;-0.60;99.90
19680;DHT22;9989;48.962;9.182;2023-02-10T03:09:11;-0.50;99.90
19680;DHT22;9989;48.962;9.182;2023-02-10T03:11:37;-0.60;99.90
19680;DHT22;9989;48.962;9.182;2023-02-10T03:14:03;-0.60;99.90
19680;DHT22;9989;48.962;9.182;2023-02-10T03:16:31;-0.60;99.90
19680;DHT22;9989;48.962;9.182;2023-02-10T03:18:56;-0.60;99.90
19680;DHT22;9989;48.962;9.182;2023-02-10T03:21:22;-0.60;99.90
19680;DHT22;9989;48.962;9.182;2023-02-10T03:23:47;-0.60;99.90
19680;DHT22;9989;48.962;9.182;2023-02-10T03:26:13;-0.60;99.90
19680;DHT22;9989;48.962;9.182;2023-02-10T03:28:39;-0.70;99.90
19680;DHT22;9989;48.962;9.182;2023-02-10T03:31:05;-0.70;99.90
19680;DHT22;9989;48.962;9.182;2023-02-10T03:33:31;-0.70;99.90
19680;DHT22;9989;48.962;9.182;2023-02-10T03:35:57;-0.70;99.90
19680;DHT22;9989;48.962;9.182;2023-02-10T03:38:23;-0.80;99.90
19680;DHT22;9989;48.962;9.182;2023-02-10T03:40:51;-0.80;99.90
19680;DHT22;9989;48.962;9.182;2023-02-10T03:43:17;-0.70;99.90
19680;DHT22;9989;48.962;9.182;2023-02-10T03:45:42;-0.70;99.90
19680;DHT22;9989;48.962;9.182;2023-02-10T03:48:08;-0.70;99.90
19680;DHT22;9989;48.962;9.182;2023-02-10T03:50:34;-0.80;99.90
19680;DHT22;9989;48.962;9.182;2023-02-10T03:52:59;-0.80;99.90
19680;DHT22;9989;48.962;9.182;2023-02-10T03:55:25;-0.90;99.90
19680;DHT22;9989;48.962;9.182;2023-02-10T03:57:51;-0.90;99.90
19680;DHT22;9989;48.962;9.182;2023-02-10T04:00:17;-1.00;99.90
19680;DHT22;9989;48.962;9.182;2023-02-10T04:02:42;-1.10;99.90
19680;DHT22;9989;48.962;9.182;2023-02-10T04:05:08;-1.10;99.90
19680;DHT22;9989;48.962;9.182;2023-02-10T04:07:34;-1.20;99.90
19680;DHT22;9989;48.962;9.182;2023-02-10T04:09:59;-1.20;99.90
19680;DHT22;9989;48.962;9.182;2023-02-10T04:12:28;-1.30;99.90
19680;DHT22;9989;48.962;9.182;2023-02-10T04:14:54;-1.30;99.90
19680;DHT22;9989;48.962;9.182;2023-02-10T04:17:19;-1.30;99.90
19680;DHT22;9989;48.962;9.182;2023-02-10T04:19:45;-1.30;99.90
19680;DHT22;9989;48.962;9.182;2023-02-10T04:22:10;-1.30;99.90
19680;DHT22;9989;48.962;9.182;2023-02-10T04:24:36;-1.30;99.90
19680;DHT22;9989;48.962;9.182;2023-02-10T04:27:01;-1.30;99.90
19680;DHT22;9989;48.962;9.182;2023-02-10T04:29:28;-1.40;99.90
19680;DHT22;9989;48.962;9.182;2023-02-10T04:31:54;-1.40;99.90
19680;DHT22;9989;48.962;9.182;2023-02-10T04:34:20;-1.40;99.90
19680;DHT22;9989;48.962;9.182;2023-02-10T04:36:45;-1.40;99.90
19680;DHT22;9989;48.962;9.182;2023-02-10T04:39:11;-1.30;99.90
19680;DHT22;9989;48.962;9.182;2023-02-10T04:41:36;-1.30;99.90
19680;DHT22;9989;48.962;9.182;2023-02-10T04:44:02;-1.30;99.90
19680;DHT22;9989;48.962;9.182;2023-02-10T04:46:28;-1.30;99.90
19680;DHT22;9989;48.962;9.182;2023-02-10T04:48:54;-1.30;99.90
19680;DHT22;9989;48.962;9.182;2023-02-10T04:51:19;-1.30;99.90
19680;DHT22;9989;48.962;9.182;2023-02-10T04:53:45;-1.30;99.90
19680;DHT22;9989;48.962;9.182;2023-02-10T04:56:13;-1.30;99.90
19680;DHT22;9989;48.962;9.182;2023-02-10T04:58:38;-1.30;99.90
19680;DHT22;9989;48.962;9.182;2023-02-10T05:01:05;-1.30;99.90
19680;DHT22;9989;48.962;9.182;2023-02-10T05:03:30;-1.30;99.90
19680;DHT22;9989;48.962;9.182;2023-02-10T05:05:56;-1.40;99.90
19680;DHT22;9989;48.962;9.182;2023-02-10T05:08:21;-1.30;99.90
19680;DHT22;9989;48.962;9.182;2023-02-10T05:10:48;-1.30;99.90
19680;DHT22;9989;48.962;9.182;2023-02-10T05:13:14;-1.30;99.90
19680;DHT22;9989;48.962;9.182;2023-02-10T05:15:40;-1.20;99.90
19680;DHT22;9989;48.962;9.182;2023-02-10T05:18:05;-1.20;99.90
19680;DHT22;9989;48.962;9.182;2023-02-10T05:20:31;-1.20;99.90
19680;DHT22;9989;48.962;9.182;2023-02-10T05:22:57;-1.20;99.90
19680;DHT22;9989;48.962;9.182;2023-02-10T05:25:22;-1.30;99.90
19680;DHT22;9989;48.962;9.182;2023-02-10T05:27:48;-1.30;99.90
19680;DHT22;9989;48.962;9.182;2023-02-10T05:30:13;-1.30;99.90
19680;DHT22;9989;48.962;9.182;2023-02-10T05:32:41;-1.30;99.90
19680;DHT22;9989;48.962;9.182;2023-02-10T05:35:07;-1.30;99.90
19680;DHT22;9989;48.962;9.182;2023-02-10T05:37:32;-1.30;99.90
19680;DHT22;9989;48.962;9.182;2023-02-10T05:39:58;-1.30;99.90
19680;DHT22;9989;48.962;9.182;2023-02-10T05:42:23;-1.30;99.90
19680;DHT22;9989;48.962;9.182;2023-02-10T05:44:49;-1.30;99.90
19680;DHT22;9989;48.962;9.182;2023-02-10T05:47:15;-1.40;99.90
19680;DHT22;9989;48.962;9.182;2023-02-10T05:49:40;-1.40;99.90
19680;DHT22;9989;48.962;9.182;2023-02-10T05:52:06;-1.50;99.90
19680;DHT22;9989;48.962;9.182;2023-02-10T05:54:31;-1.50;99.90
19680;DHT22;9989;48.962;9.182;2023-02-10T05:56:58;-1.60;99.90
19680;DHT22;9989;48.962;9.182;2023-02-10T05:59:24;-1.60;99.90
19680;DHT22;9989;48.962;9.182;2023-02-10T06:01:49;-1.50;99.90
19680;DHT22;9989;48.962;9.182;2023-02-10T06:04:15;-1.40;99.90
19680;DHT22;9989;48.962;9.182;2023-02-10T06:06:41;-1.40;99.90
19680;DHT22;9989;48.962;9.182;2023-02-10T06:09:06;-1.40;99.90
19680;DHT22;9989;48.962;9.182;2023-02-10T06:11:32;-1.40;99.90
19680;DHT22;9989;48.962;9.182;2023-02-10T06:13:58;-1.30;99.90
19680;DHT22;9989;48.962;9.182;2023-02-10T06:16:24;-1.30;99.90
19680;DHT22;9989;48.962;9.182;2023-02-10T06:18:50;-1.30;99.90
19680;DHT22;9989;48.962;9.182;2023-02-10T06:21:15;-1.40;99.90
19680;DHT22;9989;48.962;9.182;2023-02-10T06:23:41;-1.40;99.90
19680;DHT22;9989;48.962;9.182;2023-02-10T06:26:07;-1.50;99.90
19680;DHT22;9989;48.962;9.182;2023-02-10T06:28:33;-1.60;99.90
19680;DHT22;9989;48.962;9.182;2023-02-10T06:30:59;-1.60;99.90
19680;DHT22;9989;48.962;9.182;2023-02-10T06:33:24;-1.60;99.90
19680;DHT22;9989;48.962;9.182;2023-02-10T06:35:50;-1.60;99.90
19680;DHT22;9989;48.962;9.182;2023-02-10T06:38:16;-1.60;99.90
19680;DHT22;9989;48.962;9.182;2023-02-10T06:43:54;-1.60;99.90
19680;DHT22;9989;48.962;9.182;2023-02-10T06:46:20;-1.60;99.90
19680;DHT22;9989;48.962;9.182;2023-02-10T06:48:45;-1.60;99.90
19680;DHT22;9989;48.962;9.182;2023-02-10T06:51:11;-1.70;99.90
19680;DHT22;9989;48.962;9.182;2023-02-10T06:53:36;-1.70;99.90
19680;DHT22;9989;48.962;9.182;2023-02-10T06:56:03;-1.60;99.90
19680;DHT22;9989;48.962;9.182;2023-02-10T06:58:29;-1.60;99.90
19680;DHT22;9989;48.962;9.182;2023-02-10T07:00:55;-1.60;99.90
19680;DHT22;9989;48.962;9.182;2023-02-10T07:03:20;-1.60;99.90
19680;DHT22;9989;48.962;9.182;2023-02-10T07:05:46;-1.50;99.90
19680;DHT22;9989;48.962;9.182;2023-02-10T07:08:12;-1.30;99.90
19680;DHT22;9989;48.962;9.182;2023-02-10T07:10:37;-1.30;99.90
19680;DHT22;9989;48.962;9.182;2023-02-10T07:13:03;-1.20;99.90
19680;DHT22;9989;48.962;9.182;2023-02-10T07:15:29;-1.10;99.90
19680;DHT22;9989;48.962;9.182;2023-02-10T07:17:55;-1.00;99.90
19680;DHT22;9989;48.962;9.182;2023-02-10T07:20:21;-0.90;99.90
19680;DHT22;9989;48.962;9.182;2023-02-10T07:22:47;-0.80;99.90
19680;DHT22;9989;48.962;9.182;2023-02-10T07:25:12;-0.80;99.90
19680;DHT22;9989;48.962;9.182;2023-02-10T07:27:38;-0.70;99.90
19680;DHT22;9989;48.962;9.182;2023-02-10T07:30:04;-0.50;99.90
19680;DHT22;9989;48.962;9.182;2023-02-10T07:32:30;-0.40;99.90
19680;DHT22;9989;48.962;9.182;2023-02-10T07:34:56;-0.30;99.90
19680;DHT22;9989;48.962;9.182;2023-02-10T07:37:22;-0.20;99.90
19680;DHT22;9989;48.962;9.182;2023-02-10T07:39:47;0.00;99.90
19680;DHT22;9989;48.962;9.182;2023-02-10T07:42:13;0.20;99.90
19680;DHT22;9989;48.962;9.182;2023-02-10T07:44:38;0.40;99.90
19680;DHT22;9989;48.962;9.182;2023-02-10T07:47:05;0.60;99.90
19680;DHT22;9989;48.962;9.182;2023-02-10T07:49:30;0.80;99.90
19680;DHT22;9989;48.962;9.182;2023-02-10T07:51:56;1.20;99.90
19680;DHT22;9989;48.962;9.182;2023-02-10T07:54:22;1.80;99.90
19680;DHT22;9989;48.962;9.182;2023-02-10T07:56:48;2.60;99.90
19680;DHT22;9989;48.962;9.182;2023-02-10T07:59:13;3.60;99.90
19680;DHT22;9989;48.962;9.182;2023-02-10T08:01:43;4.60;99.90
19680;DHT22;9989;48.962;9.182;2023-02-10T08:04:12;5.70;99.90
19680;DHT22;9989;48.962;9.182;2023-02-10T08:06:38;6.80;98.10
19680;DHT22;9989;48.962;9.182;2023-02-10T08:09:04;7.70;94.80
19680;DHT22;9989;48.962;9.182;2023-02-10T08:11:29;8.70;92.40
19680;DHT22;9989;48.962;9.182;2023-02-10T08:13:55;9.50;89.80
19680;DHT22;9989;48.962;9.182;2023-02-10T08:16:21;10.40;83.70
19680;DHT22;9989;48.962;9.182;2023-02-10T08:18:46;11.20;79.20
19680;DHT22;9989;48.962;9.182;2023-02-10T08:21:12;11.90;74.30
19680;DHT22;9989;48.962;9.182;2023-02-10T08:23:37;12.60;70.90
19680;DHT22;9989;48.962;9.182;2023-02-10T08:26:08;13.30;67.30
19680;DHT22;9989;48.962;9.182;2023-02-10T08:28:35;14.00;64.00
19680;DHT22;9989;48.962;9.182;2023-02-10T08:31:03;14.60;61.20
19680;DHT22;9989;48.962;9.182;2023-02-10T08:33:28;15.30;59.20
19680;DHT22;9989;48.962;9.182;2023-02-10T08:35:56;15.90;56.90
19680;DHT22;9989;48.962;9.182;2023-02-10T08:38:21;16.40;55.30
19680;DHT22;9989;48.962;9.182;2023-02-10T08:40:55;16.90;53.70
19680;DHT22;9989;48.962;9.182;2023-02-10T08:43:21;17.50;52.30
19680;DHT22;9989;48.962;9.182;2023-02-10T08:45:47;18.10;51.20
19680;DHT22;9989;48.962;9.182;2023-02-10T08:48:12;18.60;49.30
19680;DHT22;9989;48.962;9.182;2023-02-10T08:50:38;19.00;48.10
19680;DHT22;9989;48.962;9.182;2023-02-10T08:53:04;19.50;47.80
19680;DHT22;9989;48.962;9.182;2023-02-10T08:55:29;19.90;46.10
19680;DHT22;9989;48.962;9.182;2023-02-10T08:57:55;20.40;44.70
19680;DHT22;9989;48.962;9.182;2023-02-10T09:00:20;20.60;43.30
19680;DHT22;9989;48.962;9.182;2023-02-10T09:02:49;20.90;43.00
19680;DHT22;9989;48.962;9.182;2023-02-10T09:05:15;21.30;42.20
19680;DHT22;9989;48.962;9.182;2023-02-10T09:07:40;21.50;41.30
19680;DHT22;9989;48.962;9.182;2023-02-10T09:10:08;21.80;41.10
19680;DHT22;9989;48.962;9.182;2023-02-10T09:12:36;22.30;40.50
19680;DHT22;9989;48.962;9.182;2023-02-10T09:15:02;22.70;39.30
19680;DHT22;9989;48.962;9.182;2023-02-10T09:17:27;23.00;38.50
19680;DHT22;9989;48.962;9.182;2023-02-10T09:19:53;23.30;38.50
19680;DHT22;9989;48.962;9.182;2023-02-10T09:22:19;23.70;37.90
19680;DHT22;9989;48.962;9.182;2023-02-10T09:24:44;24.00;37.30
19680;DHT22;9989;48.962;9.182;2023-02-10T09:27:12;24.30;36.90
19680;DHT22;9989;48.962;9.182;2023-02-10T09:29:38;24.70;36.30
19680;DHT22;9989;48.962;9.182;2023-02-10T09:32:04;25.00;35.70
19680;DHT22;9989;48.962;9.182;2023-02-10T09:34:29;25.20;34.20
19680;DHT22;9989;48.962;9.182;2023-02-10T09:36:57;25.20;34.60
19680;DHT22;9989;48.962;9.182;2023-02-10T09:39:26;25.30;34.60
19680;DHT22;9989;48.962;9.182;2023-02-10T09:42:26;25.60;34.50
19680;DHT22;9989;48.962;9.182;2023-02-10T09:45:03;25.90;33.80
19680;DHT22;9989;48.962;9.182;2023-02-10T09:55:50;27.40;32.50
19680;DHT22;9989;48.962;9.182;2023-02-10T09:58:41;27.80;32.80
19680;DHT22;9989;48.962;9.182;2023-02-10T10:04:08;28.40;30.90
19680;DHT22;9989;48.962;9.182;2023-02-10T10:06:38;28.70;30.80
19680;DHT22;9989;48.962;9.182;2023-02-10T10:11:52;29.10;30.10
19680;DHT22;9989;48.962;9.182;2023-02-10T10:14:28;29.10;30.10
19680;DHT22;9989;48.962;9.182;2023-02-10T10:35:44;29.20;29.70
19680;DHT22;9989;48.962;9.182;2023-02-10T10:38:22;29.40;29.50
19680;DHT22;9989;48.962;9.182;2023-02-10T10:40:52;29.60;29.10
19680;DHT22;9989;48.962;9.182;2023-02-10T10:43:27;29.80;29.00
19680;DHT22;9989;48.962;9.182;2023-02-10T10:45:59;29.90;28.70
19680;DHT22;9989;48.962;9.182;2023-02-10T10:48:29;30.00;28.90
19680;DHT22;9989;48.962;9.182;2023-02-10T10:50:58;30.00;28.20
19680;DHT22;9989;48.962;9.182;2023-02-10T10:53:39;30.00;28.50
19680;DHT22;9989;48.962;9.182;2023-02-10T10:58:50;30.30;28.70
19680;DHT22;9989;48.962;9.182;2023-02-10T11:01:17;30.40;28.50
19680;DHT22;9989;48.962;9.182;2023-02-10T11:03:43;30.60;28.20
19680;DHT22;9989;48.962;9.182;2023-02-10T11:06:15;30.80;28.20
19680;DHT22;9989;48.962;9.182;2023-02-10T11:08:58;31.00;28.20
19680;DHT22;9989;48.962;9.182;2023-02-10T11:11:40;31.10;27.60
19680;DHT22;9989;48.962;9.182;2023-02-10T11:16:53;31.30;27.50
19680;DHT22;9989;48.962;9.182;2023-02-10T11:19:26;31.50;27.20
19680;DHT22;9989;48.962;9.182;2023-02-10T11:21:52;31.20;26.60
19680;DHT22;9989;48.962;9.182;2023-02-10T11:24:25;30.80;26.80
19680;DHT22;9989;48.962;9.182;2023-02-10T11:27:01;30.80;27.10
19680;DHT22;9989;48.962;9.182;2023-02-10T11:29:31;31.00;26.90
19680;DHT22;9989;48.962;9.182;2023-02-10T11:31:58;30.80;26.80
19680;DHT22;9989;48.962;9.182;2023-02-10T11:34:31;30.80;27.10
19680;DHT22;9989;48.962;9.182;2023-02-10T11:36:59;31.00;27.30
19680;DHT22;9989;48.962;9.182;2023-02-10T11:39:35;31.40;27.20
19680;DHT22;9989;48.962;9.182;2023-02-10T11:42:15;31.80;26.70
19680;DHT22;9989;48.962;9.182;2023-02-10T11:44:41;32.20;26.50
19680;DHT22;9989;48.962;9.182;2023-02-10T11:47:15;32.30;26.30
19680;DHT22;9989;48.962;9.182;2023-02-10T11:49:46;32.50;26.10
19680;DHT22;9989;48.962;9.182;2023-02-10T11:52:12;32.50;25.50
19680;DHT22;9989;48.962;9.182;2023-02-10T11:54:39;32.60;25.40
19680;DHT22;9989;48.962;9.182;2023-02-10T12:06:09;30.50;26.00
19680;DHT22;9989;48.962;9.182;2023-02-10T12:09:27;30.60;25.80
19680;DHT22;9989;48.962;9.182;2023-02-10T12:12:03;30.50;25.60
19680;DHT22;9989;48.962;9.182;2023-02-10T12:26:20;30.40;26.50
19680;DHT22;9989;48.962;9.182;2023-02-10T12:28:57;30.60;25.90
19680;DHT22;9989;48.962;9.182;2023-02-10T12:31:57;30.90;26.20
19680;DHT22;9989;48.962;9.182;2023-02-10T12:34:35;31.10;25.20
19680;DHT22;9989;48.962;9.182;2023-02-10T12:42:48;29.90;26.40
19680;DHT22;9989;48.962;9.182;2023-02-10T12:45:54;30.40;26.00
19680;DHT22;9989;48.962;9.182;2023-02-10T12:53:51;30.60;25.60
19680;DHT22;9989;48.962;9.182;2023-02-10T12:56:27;30.00;25.80
19680;DHT22;9989;48.962;9.182;2023-02-10T12:59:01;29.30;26.30
19680;DHT22;9989;48.962;9.182;2023-02-10T13:01:40;28.20;26.70
19680;DHT22;9989;48.962;9.182;2023-02-10T13:07:00;26.90;28.10
19680;DHT22;9989;48.962;9.182;2023-02-10T13:14:51;27.70;28.30
19680;DHT22;9989;48.962;9.182;2023-02-10T13:17:17;28.40;28.20
19680;DHT22;9989;48.962;9.182;2023-02-10T13:20:26;29.10;28.10
19680;DHT22;9989;48.962;9.182;2023-02-10T13:22:41;29.70;27.50
19680;DHT22;9989;48.962;9.182;2023-02-10T13:25:34;30.20;26.90
19680;DHT22;9989;48.962;9.182;2023-02-10T13:28:14;30.60;26.50
19680;DHT22;9989;48.962;9.182;2023-02-10T13:34:00;31.00;26.30
19680;DHT22;9989;48.962;9.182;2023-02-10T13:36:29;31.20;26.40
19680;DHT22;9989;48.962;9.182;2023-02-10T13:39:05;31.40;26.10
19680;DHT22;9989;48.962;9.182;2023-02-10T13:41:35;31.50;26.10
19680;DHT22;9989;48.962;9.182;2023-02-10T13:44:27;31.40;26.40
19680;DHT22;9989;48.962;9.182;2023-02-10T13:49:54;31.20;26.60
19680;DHT22;9989;48.962;9.182;2023-02-10T13:52:26;31.20;26.70
19680;DHT22;9989;48.962;9.182;2023-02-10T13:55:00;31.00;26.60
19680;DHT22;9989;48.962;9.182;2023-02-10T13:57:32;30.70;26.70
19680;DHT22;9989;48.962;9.182;2023-02-10T14:02:39;30.10;27.20
19680;DHT22;9989;48.962;9.182;2023-02-10T14:05:22;29.80;27.20
19680;DHT22;9989;48.962;9.182;2023-02-10T14:07:47;29.60;26.80
19680;DHT22;9989;48.962;9.182;2023-02-10T14:13:22;29.30;27.40
19680;DHT22;9989;48.962;9.182;2023-02-10T14:15:57;29.40;27.40
19680;DHT22;9989;48.962;9.182;2023-02-10T14:18:26;29.50;27.30
19680;DHT22;9989;48.962;9.182;2023-02-10T14:21:00;29.60;26.70
19680;DHT22;9989;48.962;9.182;2023-02-10T14:23:31;29.40;26.90
19680;DHT22;9989;48.962;9.182;2023-02-10T14:26:14;29.10;26.90
19680;DHT22;9989;48.962;9.182;2023-02-10T14:28:42;28.90;27.50
19680;DHT22;9989;48.962;9.182;2023-02-10T14:31:15;28.90;27.80
19680;DHT22;9989;48.962;9.182;2023-02-10T14:33:52;28.90;27.60
19680;DHT22;9989;48.962;9.182;2023-02-10T14:36:19;28.80;27.70
19680;DHT22;9989;48.962;9.182;2023-02-10T14:38:53;28.50;28.10
19680;DHT22;9989;48.962;9.182;2023-02-10T14:41:20;28.30;28.20
19680;DHT22;9989;48.962;9.182;2023-02-10T14:43:46;28.00;28.50
19680;DHT22;9989;48.962;9.182;2023-02-10T14:46:27;27.70;28.80
19680;DHT22;9989;48.962;9.182;2023-02-10T14:49:11;27.50;29.00
19680;DHT22;9989;48.962;9.182;2023-02-10T14:51:42;27.40;29.00
19680;DHT22;9989;48.962;9.182;2023-02-10T14:54:22;27.20;29.10
19680;DHT22;9989;48.962;9.182;2023-02-10T14:57:00;27.10;29.00
19680;DHT22;9989;48.962;9.182;2023-02-10T14:59:27;26.90;29.00
19680;DHT22;9989;48.962;9.182;2023-02-10T15:01:54;26.80;29.10
19680;DHT22;9989;48.962;9.182;2023-02-10T15:04:21;26.70;29.20
19680;DHT22;9989;48.962;9.182;2023-02-10T15:06:52;26.40;29.20
19680;DHT22;9989;48.962;9.182;2023-02-10T15:09:22;26.00;29.60
19680;DHT22;9989;48.962;9.182;2023-02-10T15:11:59;25.70;29.90
19680;DHT22;9989;48.962;9.182;2023-02-10T15:17:23;24.90;30.50
19680;DHT22;9989;48.962;9.182;2023-02-10T15:20:00;24.60;31.10
19680;DHT22;9989;48.962;9.182;2023-02-10T15:22:41;24.30;31.50
19680;DHT22;9989;48.962;9.182;2023-02-10T15:27:51;23.80;32.20
19680;DHT22;9989;48.962;9.182;2023-02-10T15:30:22;23.50;32.40
19680;DHT22;9989;48.962;9.182;2023-02-10T15:32:52;22.90;32.90
19680;DHT22;9989;48.962;9.182;2023-02-10T15:35:19;22.20;33.90
19680;DHT22;9989;48.962;9.182;2023-02-10T15:37:49;21.60;34.70
19680;DHT22;9989;48.962;9.182;2023-02-10T15:40:22;20.90;35.40
19680;DHT22;9989;48.962;9.182;2023-02-10T15:45:28;19.20;37.80
19680;DHT22;9989;48.962;9.182;2023-02-10T15:50:24;17.70;40.10
19680;DHT22;9989;48.962;9.182;2023-02-10T15:52:49;17.00;41.20
19680;DHT22;9989;48.962;9.182;2023-02-10T15:55:26;16.20;42.50
19680;DHT22;9989;48.962;9.182;2023-02-10T15:57:54;15.40;43.80
19680;DHT22;9989;48.962;9.182;2023-02-10T16:02:47;14.20;46.10
19680;DHT22;9989;48.962;9.182;2023-02-10T16:05:13;13.70;47.50
19680;DHT22;9989;48.962;9.182;2023-02-10T16:07:38;13.20;48.70
19680;DHT22;9989;48.962;9.182;2023-02-10T16:10:04;12.80;49.70
19680;DHT22;9989;48.962;9.182;2023-02-10T16:12:30;12.40;50.90
19680;DHT22;9989;48.962;9.182;2023-02-10T16:14:56;12.00;51.70
19680;DHT22;9989;48.962;9.182;2023-02-10T16:17:31;11.70;52.90
19680;DHT22;9989;48.962;9.182;2023-02-10T16:19:57;11.30;54.00
19680;DHT22;9989;48.962;9.182;2023-02-10T16:22:23;11.00;55.00
19680;DHT22;9989;48.962;9.182;2023-02-10T16:24:48;10.70;56.20
19680;DHT22;9989;48.962;9.182;2023-02-10T16:27:14;10.40;57.20
19680;DHT22;9989;48.962;9.182;2023-02-10T16:29:40;10.10;58.10
19680;DHT22;9989;48.962;9.182;2023-02-10T16:32:06;9.90;58.90
19680;DHT22;9989;48.962;9.182;2023-02-10T16:34:32;9.60;59.70
19680;DHT22;9989;48.962;9.182;2023-02-10T16:36:58;9.40;60.60
19680;DHT22;9989;48.962;9.182;2023-02-10T16:39:24;9.10;61.30
19680;DHT22;9989;48.962;9.182;2023-02-10T16:41:51;8.90;62.10
19680;DHT22;9989;48.962;9.182;2023-02-10T16:44:18;8.70;63.20
19680;DHT22;9989;48.962;9.182;2023-02-10T16:46:45;8.50;63.90
19680;DHT22;9989;48.962;9.182;2023-02-10T16:49:13;8.40;65.30
19680;DHT22;9989;48.962;9.182;2023-02-10T16:51:40;8.30;66.10
19680;DHT22;9989;48.962;9.182;2023-02-10T16:54:06;8.10;66.50
19680;DHT22;9989;48.962;9.182;2023-02-10T16:56:38;7.90;67.30
19680;DHT22;9989;48.962;9.182;2023-02-10T16:59:06;7.80;69.20
19680;DHT22;9989;48.962;9.182;2023-02-10T17:01:32;7.60;70.20
19680;DHT22;9989;48.962;9.182;2023-02-10T17:03:58;7.40;69.50
19680;DHT22;9989;48.962;9.182;2023-02-10T17:06:24;7.30;70.60
19680;DHT22;9989;48.962;9.182;2023-02-10T17:08:50;7.20;70.30
19680;DHT22;9989;48.962;9.182;2023-02-10T17:11:16;7.10;71.00
19680;DHT22;9989;48.962;9.182;2023-02-10T17:13:42;7.00;71.20
19680;DHT22;9989;48.962;9.182;2023-02-10T17:16:30;6.90;71.70
19680;DHT22;9989;48.962;9.182;2023-02-10T17:18:56;6.80;71.90
19680;DHT22;9989;48.962;9.182;2023-02-10T17:21:22;6.70;72.40
19680;DHT22;9989;48.962;9.182;2023-02-10T17:23:48;6.70;72.90
19680;DHT22;9989;48.962;9.182;2023-02-10T17:26:13;6.60;73.10
19680;DHT22;9989;48.962;9.182;2023-02-10T17:28:39;6.50;73.30
19680;DHT22;9989;48.962;9.182;2023-02-10T17:31:05;6.40;73.70
19680;DHT22;9989;48.962;9.182;2023-02-10T17:33:31;6.30;74.20
19680;DHT22;9989;48.962;9.182;2023-02-10T17:35:57;6.30;75.00
19680;DHT22;9989;48.962;9.182;2023-02-10T17:38:22;6.10;75.10
19680;DHT22;9989;48.962;9.182;2023-02-10T17:41:07;6.10;75.30
19680;DHT22;9989;48.962;9.182;2023-02-10T17:43:33;6.00;75.80
19680;DHT22;9989;48.962;9.182;2023-02-10T17:45:59;5.90;76.40
19680;DHT22;9989;48.962;9.182;2023-02-10T17:48:24;5.80;77.10
19680;DHT22;9989;48.962;9.182;2023-02-10T17:50:50;5.80;77.80
19680;DHT22;9989;48.962;9.182;2023-02-10T17:53:15;5.70;77.90
19680;DHT22;9989;48.962;9.182;2023-02-10T17:55:42;5.70;78.40
19680;DHT22;9989;48.962;9.182;2023-02-10T17:58:08;5.80;78.70
19680;DHT22;9989;48.962;9.182;2023-02-10T18:00:34;5.80;78.60
19680;DHT22;9989;48.962;9.182;2023-02-10T18:03:00;5.80;78.80
19680;DHT22;9989;48.962;9.182;2023-02-10T18:05:28;5.80;79.10
19680;DHT22;9989;48.962;9.182;2023-02-10T18:07:54;5.80;79.30